Time;durP1;ratioP1;P1;durP2;ratioP2;P2;SDS_P1;SDS_P2;PMS_P1;PMS_P2;Temp;Humidity;BMP_temperature;BMP_pressure;BME280_temperature;BME280_humidity;BME280_pressure;Samples;Min_cycle;Max_cycle;Signal;HPM_P1;HPM_P2
2020/12/28 00:02:11;;;;;;;12.43;5.75;;;-0.20;99.90;;;;;;5053378;28;20048;-52
2020/12/28 00:04:37;;;;;;;14.60;5.78;;;-0.30;99.90;;;;;;5039730;28;20036;-49
2020/12/28 00:07:05;;;;;;;15.68;6.78;;;-0.30;99.90;;;;;;5043946;28;20060;-49
2020/12/28 00:09:31;;;;;;;15.25;6.97;;;-0.40;99.90;;;;;;5059336;28;20047;-53
2020/12/28 00:11:57;;;;;;;13.25;6.15;;;-0.40;99.90;;;;;;5049815;28;20037;-48
2020/12/28 00:14:23;;;;;;;10.27;4.93;;;-0.40;99.90;;;;;;5049580;28;20047;-50
2020/12/28 00:16:50;;;;;;;11.45;5.10;;;-0.50;99.90;;;;;;5050003;28;20029;-49
2020/12/28 00:19:16;;;;;;;10.48;5.32;;;-0.50;99.90;;;;;;5047067;28;20110;-48
2020/12/28 00:21:42;;;;;;;10.30;5.10;;;-0.50;99.90;;;;;;5050268;28;20064;-49
2020/12/28 00:24:08;;;;;;;9.35;4.30;;;-0.40;99.90;;;;;;5045342;28;20037;-49
2020/12/28 00:26:48;;;;;;;12.95;5.43;;;-0.40;99.90;;;;;;5052029;28;20497;-49
2020/12/28 00:29:14;;;;;;;10.80;4.95;;;-0.40;99.90;;;;;;5056800;28;20033;-48
2020/12/28 00:31:43;;;;;;;10.20;4.70;;;-0.50;99.90;;;;;;5050789;28;20164;-48
2020/12/28 00:34:10;;;;;;;9.48;4.30;;;-0.50;99.90;;;;;;5041213;28;20128;-47
2020/12/28 00:36:37;;;;;;;12.05;4.80;;;-0.50;99.90;;;;;;5048430;28;20041;-48
2020/12/28 00:39:04;;;;;;;11.25;4.38;;;-0.50;99.90;;;;;;5043064;28;20531;-50
2020/12/28 00:41:31;;;;;;;7.55;4.20;;;-0.50;99.90;;;;;;5049030;28;20028;-48
2020/12/28 00:43:57;;;;;;;8.52;4.53;;;-0.60;99.90;;;;;;5031984;28;20055;-49
2020/12/28 00:46:23;;;;;;;9.55;4.10;;;-0.70;99.90;;;;;;5047035;28;20036;-51
2020/12/28 00:48:49;;;;;;;11.75;4.80;;;-0.70;99.90;;;;;;5052851;28;20025;-54
2020/12/28 00:51:15;;;;;;;10.43;4.65;;;-0.60;99.90;;;;;;5040843;28;20033;-54
2020/12/28 00:53:41;;;;;;;10.35;4.68;;;-0.60;99.90;;;;;;5065487;28;20101;-51
2020/12/28 00:56:08;;;;;;;9.63;4.25;;;-0.60;99.90;;;;;;5054624;28;20033;-49
2020/12/28 00:58:37;;;;;;;9.55;4.00;;;-0.60;99.90;;;;;;5058893;28;20033;-48
2020/12/28 01:01:04;;;;;;;7.57;4.20;;;-0.60;99.90;;;;;;5048524;28;20075;-48
2020/12/28 01:03:30;;;;;;;9.57;3.70;;;-0.60;99.90;;;;;;5054297;28;20056;-47
2020/12/28 01:05:56;;;;;;;8.88;3.80;;;-0.60;99.90;;;;;;5047489;28;20106;-54
2020/12/28 01:08:23;;;;;;;7.60;4.38;;;-0.60;99.90;;;;;;5046927;28;20513;-54
2020/12/28 01:10:48;;;;;;;9.25;4.03;;;-0.50;99.90;;;;;;5046930;28;20374;-51
2020/12/28 01:13:14;;;;;;;7.97;4.30;;;-0.60;99.90;;;;;;5047219;28;20128;-48
2020/12/28 01:15:41;;;;;;;10.65;4.13;;;-0.60;99.90;;;;;;5044298;28;20147;-48
2020/12/28 01:18:07;;;;;;;8.60;3.80;;;-0.60;99.90;;;;;;5040678;28;20047;-47
2020/12/28 01:20:32;;;;;;;8.57;4.53;;;-0.60;99.90;;;;;;5049276;28;20481;-51
2020/12/28 01:22:59;;;;;;;13.63;4.82;;;-0.60;99.90;;;;;;5048369;28;20109;-48
2020/12/28 01:25:25;;;;;;;14.68;4.40;;;-0.50;99.90;;;;;;5048206;28;20064;-48
2020/12/28 01:27:51;;;;;;;10.98;5.05;;;-0.50;99.90;;;;;;5047609;28;20356;-47
2020/12/28 01:30:17;;;;;;;10.52;4.60;;;-0.40;99.90;;;;;;5029219;28;20037;-47
2020/12/28 01:32:43;;;;;;;10.43;4.82;;;-0.40;99.90;;;;;;5028514;28;20057;-51
2020/12/28 01:35:09;;;;;;;10.23;4.00;;;-0.40;99.90;;;;;;5048439;28;20036;-51
2020/12/28 01:37:35;;;;;;;11.05;4.65;;;-0.40;99.90;;;;;;5048502;28;20064;-49
2020/12/28 01:40:00;;;;;;;10.07;3.95;;;-0.30;99.90;;;;;;5047426;28;20053;-48
2020/12/28 01:42:26;;;;;;;7.38;3.05;;;-0.30;99.90;;;;;;5049167;28;20052;-48
2020/12/28 01:44:52;;;;;;;8.93;3.25;;;-0.30;99.90;;;;;;5045729;28;20029;-47
2020/12/28 01:47:17;;;;;;;10.65;4.13;;;-0.20;99.90;;;;;;5048860;28;20040;-50
2020/12/28 01:49:43;;;;;;;9.82;3.50;;;-0.20;99.90;;;;;;5047097;28;20053;-47
2020/12/28 01:52:09;;;;;;;8.30;3.10;;;-0.20;99.90;;;;;;5048551;28;20032;-47
2020/12/28 01:54:36;;;;;;;8.00;3.50;;;-0.30;99.90;;;;;;5047241;28;20106;-50
2020/12/28 01:57:01;;;;;;;8.73;4.20;;;-0.30;99.90;;;;;;5048721;28;20040;-47
2020/12/28 01:59:27;;;;;;;6.85;3.05;;;-0.20;99.90;;;;;;5046613;28;20059;-50
2020/12/28 02:01:54;;;;;;;7.25;3.55;;;-0.30;99.90;;;;;;5048587;28;20446;-54
2020/12/28 02:04:21;;;;;;;6.82;3.50;;;-0.30;99.90;;;;;;5047459;28;20116;-52
2020/12/28 02:06:48;;;;;;;7.80;3.80;;;-0.20;99.90;;;;;;5048281;28;20056;-54
2020/12/28 02:09:14;;;;;;;7.43;3.15;;;-0.30;99.90;;;;;;5043145;28;20033;-47
2020/12/28 02:11:40;;;;;;;8.82;3.58;;;-0.20;99.90;;;;;;5045567;28;20025;-50
2020/12/28 02:14:06;;;;;;;10.52;3.67;;;-0.10;99.90;;;;;;5047612;28;20064;-48
2020/12/28 02:16:32;;;;;;;8.85;4.03;;;-0.10;99.90;;;;;;5047723;28;20051;-47
2020/12/28 02:18:59;;;;;;;10.57;3.92;;;-0.10;99.90;;;;;;5046402;28;20043;-49
2020/12/28 02:21:26;;;;;;;10.40;3.60;;;0.00;99.90;;;;;;5029856;28;20494;-48
2020/12/28 02:23:51;;;;;;;10.70;3.83;;;0.00;99.90;;;;;;5047186;28;20041;-55
2020/12/28 02:26:17;;;;;;;10.57;4.15;;;0.10;99.90;;;;;;5048626;28;20120;-47
2020/12/28 02:28:43;;;;;;;6.68;3.65;;;0.10;99.90;;;;;;5033457;28;20508;-56
2020/12/28 02:31:09;;;;;;;9.45;3.67;;;0.20;99.90;;;;;;5030347;28;20033;-49
2020/12/28 02:33:34;;;;;;;8.52;2.92;;;0.30;99.90;;;;;;5048246;28;20048;-49
2020/12/28 02:36:00;;;;;;;7.50;3.75;;;0.40;99.90;;;;;;5046947;28;20049;-52
2020/12/28 02:38:26;;;;;;;12.25;4.65;;;0.40;99.90;;;;;;5048375;28;20107;-49
2020/12/28 02:40:52;;;;;;;9.25;3.78;;;0.30;99.90;;;;;;5047347;28;20071;-48
2020/12/28 02:43:18;;;;;;;7.47;4.03;;;0.30;99.90;;;;;;5048485;28;20074;-47
2020/12/28 02:45:43;;;;;;;8.93;3.83;;;0.30;99.90;;;;;;5046285;28;20090;-49
2020/12/28 02:48:09;;;;;;;12.90;4.38;;;0.30;99.90;;;;;;5046983;28;20048;-52
2020/12/28 02:50:35;;;;;;;7.65;3.28;;;0.30;99.90;;;;;;5031441;28;20032;-51
2020/12/28 02:53:00;;;;;;;7.53;3.47;;;0.30;99.90;;;;;;5052210;28;20400;-49
2020/12/28 02:55:26;;;;;;;6.88;3.40;;;0.30;99.90;;;;;;5051041;28;20083;-52
2020/12/28 02:57:52;;;;;;;8.75;3.30;;;0.30;99.90;;;;;;5051959;28;20041;-54
2020/12/28 03:00:18;;;;;;;9.15;3.72;;;0.40;99.90;;;;;;5050489;28;20032;-53
2020/12/28 03:02:43;;;;;;;8.90;4.10;;;0.40;99.90;;;;;;5051386;28;20037;-54
2020/12/28 03:05:09;;;;;;;7.78;3.83;;;0.40;99.90;;;;;;5050072;28;20032;-51
2020/12/28 03:07:35;;;;;;;10.75;5.05;;;0.30;99.90;;;;;;5051979;28;20044;-50
2020/12/28 03:10:01;;;;;;;11.38;4.88;;;0.30;99.90;;;;;;5050673;28;20036;-46
2020/12/28 03:12:27;;;;;;;9.15;4.10;;;0.30;99.90;;;;;;5050722;28;20441;-48
2020/12/28 03:14:53;;;;;;;10.25;4.50;;;0.20;99.90;;;;;;5051133;28;20063;-49
2020/12/28 03:17:18;;;;;;;9.70;4.18;;;0.20;99.90;;;;;;5050000;28;21019;-49
2020/12/28 03:19:44;;;;;;;7.95;3.35;;;0.20;99.90;;;;;;5032878;28;20076;-46
2020/12/28 03:22:10;;;;;;;8.20;4.22;;;0.20;99.90;;;;;;5033135;28;20025;-48
2020/12/28 03:24:36;;;;;;;9.52;4.32;;;0.20;99.90;;;;;;5031484;28;20103;-47
2020/12/28 03:27:02;;;;;;;8.93;4.75;;;0.20;99.90;;;;;;5043731;28;20400;-50
2020/12/28 03:29:32;;;;;;;7.63;3.42;;;0.20;99.90;;;;;;5051643;28;20064;-49
2020/12/28 03:31:59;;;;;;;9.75;5.10;;;0.10;99.90;;;;;;5049109;28;20034;-47
2020/12/28 03:34:25;;;;;;;9.00;4.28;;;0.10;99.90;;;;;;5051048;28;20106;-51
2020/12/28 03:36:51;;;;;;;9.30;4.43;;;0.00;99.90;;;;;;5043470;28;20424;-49
2020/12/28 03:39:17;;;;;;;12.55;4.93;;;0.00;99.90;;;;;;5031560;28;20033;-49
2020/12/28 03:41:43;;;;;;;9.38;4.93;;;0.00;99.90;;;;;;5033371;28;20040;-48
2020/12/28 03:44:09;;;;;;;8.55;4.55;;;-0.10;99.90;;;;;;5031247;28;20104;-46
2020/12/28 03:46:35;;;;;;;12.52;5.38;;;-0.10;99.90;;;;;;5036994;28;20033;-50
2020/12/28 03:49:00;;;;;;;12.15;5.32;;;-0.10;99.90;;;;;;5049788;28;20515;-54
2020/12/28 03:51:26;;;;;;;8.63;5.05;;;-0.10;99.90;;;;;;5046781;28;20036;-53
2020/12/28 03:53:52;;;;;;;12.13;5.38;;;-0.10;99.90;;;;;;5042903;28;20049;-54
2020/12/28 03:56:21;;;;;;;11.10;4.97;;;-0.10;99.90;;;;;;5049863;28;20377;-53
2020/12/28 03:58:47;;;;;;;9.50;4.78;;;-0.20;99.90;;;;;;5050723;28;20131;-47
2020/12/28 04:01:13;;;;;;;12.02;5.93;;;-0.10;99.90;;;;;;5047596;28;20111;-47
2020/12/28 04:03:38;;;;;;;13.95;5.72;;;-0.10;99.90;;;;;;5049102;28;20032;-47
2020/12/28 04:06:04;;;;;;;11.20;5.50;;;-0.10;99.90;;;;;;5049921;28;20056;-53
2020/12/28 04:08:31;;;;;;;10.27;5.25;;;-0.10;99.90;;;;;;5031208;28;20041;-51
2020/12/28 04:10:57;;;;;;;14.45;5.47;;;-0.10;99.90;;;;;;5030737;28;20029;-47
2020/12/28 04:13:23;;;;;;;8.32;4.68;;;-0.10;99.90;;;;;;5034522;28;20083;-49
2020/12/28 04:15:49;;;;;;;11.32;4.68;;;-0.10;99.90;;;;;;5049185;28;20437;-49
2020/12/28 04:18:15;;;;;;;16.38;6.32;;;0.00;99.90;;;;;;5050647;28;20052;-46
2020/12/28 04:20:41;;;;;;;11.88;5.45;;;0.00;99.90;;;;;;5049293;28;20066;-48
2020/12/28 04:23:07;;;;;;;9.88;5.00;;;0.00;99.90;;;;;;5050473;28;20025;-47
2020/12/28 04:25:33;;;;;;;10.40;5.68;;;0.00;99.90;;;;;;5035243;28;20044;-48
2020/12/28 04:27:59;;;;;;;12.30;5.95;;;0.00;99.90;;;;;;5030549;28;20087;-47
2020/12/28 04:30:25;;;;;;;11.20;4.43;;;0.00;99.90;;;;;;5045707;28;20351;-49
2020/12/28 04:32:50;;;;;;;11.90;5.75;;;0.00;99.90;;;;;;5049861;28;20040;-46
2020/12/28 04:35:16;;;;;;;10.70;5.32;;;0.10;99.90;;;;;;5046820;28;20048;-52
2020/12/28 04:37:42;;;;;;;13.02;5.50;;;0.10;99.90;;;;;;5050046;28;20495;-53
2020/12/28 04:40:08;;;;;;;15.65;5.85;;;0.10;99.90;;;;;;5048854;28;20041;-49
2020/12/28 04:42:39;;;;;;;11.25;4.85;;;0.00;99.90;;;;;;5050185;28;20396;-53
2020/12/28 04:45:04;;;;;;;10.73;5.57;;;0.10;99.90;;;;;;5048572;28;20067;-53
2020/12/28 04:47:30;;;;;;;11.57;5.03;;;0.10;99.90;;;;;;5050233;28;20495;-47
2020/12/28 04:49:57;;;;;;;10.98;5.47;;;0.10;99.90;;;;;;5048697;28;20036;-49
2020/12/28 04:52:26;;;;;;;10.82;5.10;;;0.10;99.90;;;;;;5049718;28;20040;-46
2020/12/28 04:54:52;;;;;;;10.98;5.35;;;0.10;99.90;;;;;;5047537;28;20047;-47
2020/12/28 04:57:17;;;;;;;9.48;4.70;;;0.10;99.90;;;;;;5048670;28;20033;-50
2020/12/28 04:59:43;;;;;;;15.40;5.97;;;0.10;99.90;;;;;;5048605;28;20048;-47
2020/12/28 05:02:09;;;;;;;11.23;6.28;;;0.10;99.90;;;;;;5049796;28;20147;-47
2020/12/28 05:04:35;;;;;;;11.05;5.60;;;0.10;99.90;;;;;;5048297;28;20076;-48
2020/12/28 05:07:05;;;;;;;13.98;5.85;;;0.10;99.90;;;;;;5049335;28;20079;-47
2020/12/28 05:09:32;;;;;;;12.85;6.07;;;0.00;99.90;;;;;;5044711;28;20037;-48
2020/12/28 05:12:03;;;;;;;9.90;5.10;;;0.00;99.90;;;;;;5045735;28;20037;-50
2020/12/28 05:14:29;;;;;;;9.57;6.18;;;0.00;99.90;;;;;;5039582;28;20048;-53
2020/12/28 05:17:08;;;;;;;11.95;5.35;;;0.00;99.90;;;;;;5034364;28;20128;-48
2020/12/28 05:19:35;;;;;;;9.93;4.60;;;0.00;99.90;;;;;;5029453;28;20379;-51
2020/12/28 05:22:01;;;;;;;9.10;4.80;;;0.00;99.90;;;;;;5048678;28;20381;-52
2020/12/28 05:24:27;;;;;;;12.95;5.32;;;0.00;99.90;;;;;;5049161;28;20043;-47
2020/12/28 05:26:53;;;;;;;11.10;5.18;;;0.00;99.90;;;;;;5033790;28;20183;-46
2020/12/28 05:29:21;;;;;;;11.38;5.50;;;0.00;99.90;;;;;;5029213;28;20568;-49
2020/12/28 05:31:50;;;;;;;11.45;6.07;;;0.00;99.90;;;;;;5044915;28;20044;-50
2020/12/28 05:34:28;;;;;;;16.95;7.07;;;0.00;99.90;;;;;;5042993;28;20049;-49
2020/12/28 05:36:56;;;;;;;16.40;7.45;;;0.10;99.90;;;;;;5025620;28;20041;-48
2020/12/28 05:39:27;;;;;;;14.00;6.90;;;0.10;99.90;;;;;;5049145;28;20057;-51
2020/12/28 05:42:08;;;;;;;18.13;7.85;;;0.10;99.90;;;;;;5047479;28;20041;-51
2020/12/28 05:44:41;;;;;;;11.73;6.05;;;0.10;99.90;;;;;;5049142;28;20117;-53
2020/12/28 05:47:14;;;;;;;14.00;6.97;;;0.10;99.90;;;;;;5046308;28;20405;-50
2020/12/28 05:49:42;;;;;;;11.68;6.28;;;0.00;99.90;;;;;;5048605;28;20529;-52
2020/12/28 05:52:10;;;;;;;10.68;5.93;;;0.00;99.90;;;;;;5031587;28;20489;-48
2020/12/28 05:54:37;;;;;;;11.65;6.20;;;0.00;99.90;;;;;;5027377;28;20133;-49
2020/12/28 05:57:07;;;;;;;14.00;6.85;;;-0.10;99.90;;;;;;5042289;28;20394;-52
2020/12/28 05:59:35;;;;;;;13.05;6.40;;;-0.10;99.90;;;;;;5048126;28;20036;-52
2020/12/28 06:02:01;;;;;;;9.63;5.22;;;-0.10;99.90;;;;;;5046380;28;20037;-50
2020/12/28 06:04:28;;;;;;;10.52;5.60;;;0.00;99.90;;;;;;5047343;28;20128;-49
2020/12/28 06:07:01;;;;;;;13.10;5.72;;;-0.10;99.90;;;;;;5046216;28;20104;-52
2020/12/28 06:09:28;;;;;;;10.27;5.63;;;-0.10;99.90;;;;;;5047581;28;20041;-48
2020/12/28 06:12:04;;;;;;;13.23;5.38;;;-0.10;99.90;;;;;;5048437;28;20043;-51
2020/12/28 06:14:38;;;;;;;13.00;6.05;;;-0.10;99.90;;;;;;5046187;28;20410;-54
2020/12/28 06:17:04;;;;;;;10.65;5.40;;;0.00;99.90;;;;;;5044414;28;20028;-51
2020/12/28 06:19:30;;;;;;;10.75;5.38;;;0.00;99.90;;;;;;5037386;28;20148;-49
2020/12/28 06:21:56;;;;;;;11.98;5.78;;;0.00;99.90;;;;;;5047622;28;20398;-49
2020/12/28 06:24:31;;;;;;;14.70;5.72;;;0.10;99.90;;;;;;5047793;28;20029;-47
2020/12/28 06:27:03;;;;;;;12.18;6.40;;;0.10;99.90;;;;;;5052552;28;20400;-49
2020/12/28 06:29:29;;;;;;;14.52;7.90;;;0.10;99.90;;;;;;5050176;28;20048;-50
2020/12/28 06:31:55;;;;;;;14.27;7.93;;;0.20;99.90;;;;;;5052600;28;20043;-50
2020/12/28 06:34:21;;;;;;;14.90;7.55;;;0.20;99.90;;;;;;5044023;28;20049;-48
2020/12/28 06:36:59;;;;;;;15.75;7.57;;;0.20;99.90;;;;;;5032249;28;20423;-53
2020/12/28 06:39:25;;;;;;;12.35;7.45;;;0.10;99.90;;;;;;5043766;28;20052;-52
2020/12/28 06:41:50;;;;;;;12.73;7.70;;;0.10;99.90;;;;;;5048054;28;20095;-48
2020/12/28 06:44:26;;;;;;;14.13;7.07;;;0.20;99.90;;;;;;5044389;28;20033;-50
2020/12/28 06:46:52;;;;;;;13.52;7.70;;;0.20;99.90;;;;;;5041075;28;20493;-52
2020/12/28 06:49:17;;;;;;;13.05;6.55;;;0.20;99.90;;;;;;5046272;28;20124;-53
2020/12/28 06:51:43;;;;;;;10.82;5.80;;;0.20;99.90;;;;;;5043307;28;20152;-53
2020/12/28 06:54:09;;;;;;;13.50;6.20;;;0.20;99.90;;;;;;5036241;28;20032;-49
2020/12/28 06:56:34;;;;;;;11.68;6.13;;;0.30;99.90;;;;;;5051186;28;20173;-50
2020/12/28 06:59:01;;;;;;;12.10;5.00;;;0.30;99.90;;;;;;5051476;28;20032;-50
2020/12/28 07:01:28;;;;;;;11.00;5.55;;;0.30;99.90;;;;;;5043825;28;20152;-48
2020/12/28 07:03:55;;;;;;;17.48;7.10;;;0.30;99.90;;;;;;5048793;28;20033;-48
2020/12/28 07:06:20;;;;;;;10.95;5.22;;;0.30;99.90;;;;;;5049718;28;20563;-49
2020/12/28 07:08:47;;;;;;;14.63;6.45;;;0.30;99.90;;;;;;5051783;28;20071;-49
2020/12/28 07:11:18;;;;;;;19.67;8.52;;;0.40;99.90;;;;;;5046298;28;20050;-49
2020/12/28 07:13:45;;;;;;;17.05;8.70;;;0.40;99.90;;;;;;5040896;28;20404;-53
2020/12/28 07:16:11;;;;;;;21.77;7.82;;;0.40;99.90;;;;;;5049182;28;20083;-49
2020/12/28 07:18:37;;;;;;;22.00;9.05;;;0.40;99.90;;;;;;5047918;28;20116;-47
2020/12/28 07:21:04;;;;;;;15.45;7.82;;;0.40;99.90;;;;;;5034047;28;20139;-48
2020/12/28 07:23:31;;;;;;;16.40;8.73;;;0.40;99.90;;;;;;5039204;28;20037;-47
2020/12/28 07:26:02;;;;;;;16.55;7.13;;;0.40;99.90;;;;;;5051592;28;20339;-48
2020/12/28 07:28:28;;;;;;;16.85;8.52;;;0.40;99.90;;;;;;5039396;28;20038;-48
2020/12/28 07:31:01;;;;;;;17.38;8.18;;;0.40;99.90;;;;;;5047358;28;20052;-48
2020/12/28 07:33:27;;;;;;;17.42;9.73;;;0.40;99.90;;;;;;5047012;28;20409;-47
2020/12/28 07:36:13;;;;;;;19.38;10.25;;;0.40;99.90;;;;;;5043153;28;20598;-47
2020/12/28 07:38:42;;;;;;;18.35;9.15;;;0.50;99.90;;;;;;5050178;28;20400;-51
2020/12/28 07:41:12;;;;;;;11.73;6.88;;;0.50;99.90;;;;;;5051391;28;20041;-48
2020/12/28 07:43:37;;;;;;;11.32;5.78;;;0.60;99.90;;;;;;5042940;28;20044;-50
2020/12/28 07:46:43;;;;;;;13.32;5.65;;;0.70;99.90;;;;;;5042458;28;20033;-50
2020/12/28 07:49:15;;;;;;;9.85;5.07;;;0.70;99.90;;;;;;5032451;28;20124;-53
2020/12/28 07:51:42;;;;;;;12.75;5.90;;;0.90;99.90;;;;;;5044211;28;20049;-55
2020/12/28 07:54:27;;;;;;;13.85;5.95;;;1.00;99.90;;;;;;5050865;28;20040;-54
2020/12/28 07:56:58;;;;;;;10.10;4.85;;;1.00;99.90;;;;;;5050445;28;20445;-50
2020/12/28 07:59:45;;;;;;;10.52;5.22;;;1.00;99.90;;;;;;5050916;28;20031;-52
2020/12/28 08:02:32;;;;;;;16.02;5.18;;;1.00;99.90;;;;;;5050016;28;20032;-50
2020/12/28 08:04:58;;;;;;;;;;;1.00;99.90;;;;;;5043219;28;20059;-52
2020/12/28 08:07:24;;;;;;;10.25;5.30;;;0.90;99.90;;;;;;5030973;28;20380;-53
2020/12/28 08:09:56;;;;;;;15.00;6.68;;;0.90;99.90;;;;;;5043944;28;20033;-50
2020/12/28 08:12:22;;;;;;;12.95;5.38;;;0.90;99.90;;;;;;5045388;28;20044;-50
2020/12/28 08:14:55;;;;;;;14.15;6.97;;;0.90;99.90;;;;;;5039689;28;20041;-53
2020/12/28 08:17:27;;;;;;;13.85;6.15;;;1.00;99.90;;;;;;5047515;28;20374;-53
2020/12/28 08:20:07;;;;;;;10.10;5.43;;;1.20;99.90;;;;;;5040730;28;20067;-51
2020/12/28 08:22:33;;;;;;;8.27;3.47;;;1.40;99.90;;;;;;5048472;28;20493;-48
2020/12/28 08:25:03;;;;;;;8.40;3.85;;;1.40;99.90;;;;;;5050233;28;20036;-48
2020/12/28 08:27:30;;;;;;;6.45;2.75;;;1.60;99.90;;;;;;5047626;28;20036;-54
2020/12/28 08:29:58;;;;;;;6.53;3.20;;;1.70;99.90;;;;;;5038589;28;20029;-52
2020/12/28 08:32:31;;;;;;;6.00;2.50;;;1.90;99.90;;;;;;5029982;28;20029;-50
2020/12/28 08:34:58;;;;;;;6.20;2.20;;;1.80;99.90;;;;;;5030281;28;20038;-50
2020/12/28 08:37:25;;;;;;;8.05;2.33;;;2.00;99.90;;;;;;5030083;28;20065;-50
2020/12/28 08:39:51;;;;;;;5.43;1.85;;;2.00;99.90;;;;;;5029808;28;20034;-49
2020/12/28 08:42:33;;;;;;;8.50;2.15;;;2.10;99.90;;;;;;5030119;28;20039;-48
2020/12/28 08:45:03;;;;;;;3.47;1.58;;;2.00;99.90;;;;;;5029681;28;20140;-51
2020/12/28 08:47:29;;;;;;;5.72;2.60;;;2.10;99.90;;;;;;5029241;28;20029;-49
2020/12/28 08:49:56;;;;;;;7.80;3.60;;;2.20;99.90;;;;;;5029959;28;20033;-48
2020/12/28 08:52:23;;;;;;;3.40;1.85;;;2.20;99.90;;;;;;5029628;28;20038;-50
2020/12/28 08:54:59;;;;;;;2.53;0.50;;;2.30;99.90;;;;;;5029349;28;20112;-53
2020/12/28 08:57:29;;;;;;;1.23;0.30;;;2.70;99.90;;;;;;5030094;28;20091;-50
2020/12/28 08:59:57;;;;;;;0.60;0.20;;;3.00;99.90;;;;;;5029583;28;20052;-51
2020/12/28 09:02:25;;;;;;;1.83;0.30;;;3.30;99.90;;;;;;5030041;28;20037;-52
2020/12/28 09:04:51;;;;;;;0.60;0.20;;;3.50;99.90;;;;;;5029877;28;20037;-48
2020/12/28 09:07:17;;;;;;;1.95;0.68;;;3.90;99.90;;;;;;5028038;28;20137;-48
2020/12/28 09:09:45;;;;;;;1.35;0.30;;;4.00;99.90;;;;;;5029266;28;20052;-50
2020/12/28 09:12:12;;;;;;;1.10;0.30;;;4.20;99.90;;;;;;5029428;28;20037;-51
2020/12/28 09:14:38;;;;;;;0.90;0.30;;;4.30;99.90;;;;;;5029530;28;20405;-52
2020/12/28 09:17:04;;;;;;;1.08;0.28;;;4.30;99.90;;;;;;5032674;28;20033;-48
2020/12/28 09:19:31;;;;;;;0.88;0.30;;;4.50;99.90;;;;;;5036641;28;20554;-50
2020/12/28 09:21:57;;;;;;;0.50;0.20;;;4.50;99.90;;;;;;5033232;28;20067;-48
2020/12/28 09:24:23;;;;;;;1.48;0.20;;;4.60;99.90;;;;;;5049271;28;20029;-50
2020/12/28 09:26:50;;;;;;;0.82;0.30;;;4.70;99.90;;;;;;5049489;28;20112;-50
2020/12/28 09:29:15;;;;;;;2.88;0.20;;;4.90;99.90;;;;;;5034042;28;20071;-51
2020/12/28 09:31:41;;;;;;;0.75;0.20;;;5.10;99.90;;;;;;5038344;28;20040;-49
2020/12/28 09:34:07;;;;;;;0.70;0.20;;;5.20;99.90;;;;;;5045365;28;20397;-51
2020/12/28 09:36:33;;;;;;;2.28;0.38;;;5.30;99.90;;;;;;5033158;28;20397;-52
2020/12/28 09:38:59;;;;;;;1.83;0.38;;;5.50;99.90;;;;;;5048326;28;20540;-51
2020/12/28 09:41:25;;;;;;;2.00;0.38;;;5.50;99.90;;;;;;5052320;28;20060;-48
2020/12/28 09:43:51;;;;;;;2.60;0.52;;;5.40;99.90;;;;;;5064987;28;20492;-49
2020/12/28 09:46:20;;;;;;;1.25;0.30;;;5.40;99.90;;;;;;5048599;28;20112;-49
2020/12/28 09:48:50;;;;;;;1.58;0.30;;;5.50;99.90;;;;;;5048695;28;20029;-53
2020/12/28 09:51:16;;;;;;;0.85;0.25;;;5.50;99.90;;;;;;5048955;28;20021;-49
2020/12/28 09:53:43;;;;;;;2.25;0.47;;;5.50;99.90;;;;;;5048567;28;20044;-50
2020/12/28 09:56:10;;;;;;;1.55;0.30;;;5.60;99.90;;;;;;5042234;28;20032;-50
2020/12/28 09:58:36;;;;;;;2.58;0.32;;;5.70;99.90;;;;;;5047055;28;20043;-47
2020/12/28 10:01:05;;;;;;;1.90;0.40;;;5.70;99.90;;;;;;5047419;28;20065;-47
2020/12/28 10:03:31;;;;;;;1.60;0.20;;;5.70;99.90;;;;;;5045104;28;20037;-51
2020/12/28 10:05:57;;;;;;;1.48;0.40;;;5.70;99.90;;;;;;5046389;28;20120;-49
2020/12/28 10:08:23;;;;;;;2.80;0.28;;;5.70;99.90;;;;;;5042947;28;20163;-50
2020/12/28 10:10:49;;;;;;;2.13;0.30;;;5.80;99.90;;;;;;5029675;28;20068;-51
2020/12/28 10:13:15;;;;;;;4.38;0.40;;;5.80;99.90;;;;;;5037915;28;20179;-47
2020/12/28 10:15:41;;;;;;;1.35;0.28;;;5.90;99.90;;;;;;5028589;28;20029;-51
2020/12/28 10:18:22;;;;;;;2.97;0.40;;;6.00;99.90;;;;;;5029074;28;20026;-50
2020/12/28 10:20:48;;;;;;;3.05;0.57;;;6.10;99.90;;;;;;5029037;28;20128;-51
2020/12/28 10:23:14;;;;;;;4.13;0.70;;;6.20;99.90;;;;;;5028944;28;20045;-49
2020/12/28 10:25:40;;;;;;;3.30;0.40;;;6.20;99.90;;;;;;5028492;28;20186;-48
2020/12/28 10:28:06;;;;;;;7.32;0.68;;;6.20;99.90;;;;;;5028503;28;20029;-48
2020/12/28 10:30:32;;;;;;;5.80;0.50;;;6.30;99.90;;;;;;5028385;28;20061;-50
2020/12/28 10:32:57;;;;;;;6.05;1.73;;;6.40;99.90;;;;;;5028592;28;20037;-50
2020/12/28 10:35:23;;;;;;;4.70;0.82;;;6.40;99.90;;;;;;5028776;28;20021;-49
2020/12/28 10:37:49;;;;;;;2.97;0.68;;;6.30;99.90;;;;;;5028319;28;20037;-51
2020/12/28 10:40:15;;;;;;;5.90;0.95;;;6.30;99.90;;;;;;5028233;28;20041;-50
2020/12/28 10:42:41;;;;;;;5.18;0.70;;;6.20;99.90;;;;;;5028516;28;20033;-52
2020/12/28 10:45:07;;;;;;;4.15;0.45;;;6.20;99.90;;;;;;5028585;28;20056;-52
2020/12/28 10:47:33;;;;;;;1.23;0.40;;;6.30;99.90;;;;;;5028655;28;20037;-53
2020/12/28 10:49:58;;;;;;;4.13;0.50;;;6.30;99.90;;;;;;5028776;28;20025;-52
2020/12/28 10:52:24;;;;;;;4.50;1.02;;;6.30;99.90;;;;;;5028356;28;20037;-48
2020/12/28 10:54:50;;;;;;;2.90;0.30;;;6.30;99.90;;;;;;5028032;28;20136;-52
2020/12/28 10:57:16;;;;;;;1.70;0.40;;;6.30;99.90;;;;;;5028338;28;20044;-52
2020/12/28 10:59:41;;;;;;;2.53;0.28;;;6.30;99.90;;;;;;5028198;28;20115;-51
2020/12/28 11:02:07;;;;;;;7.43;0.55;;;6.40;99.90;;;;;;5028157;28;20109;-54
2020/12/28 11:04:33;;;;;;;1.30;0.30;;;6.50;99.90;;;;;;5028015;28;20423;-54
2020/12/28 11:06:59;;;;;;;3.42;0.30;;;6.40;99.90;;;;;;5028130;28;20061;-53
2020/12/28 11:09:24;;;;;;;2.35;0.30;;;6.50;99.90;;;;;;5027852;28;20048;-50
2020/12/28 11:11:51;;;;;;;2.95;0.40;;;6.50;99.90;;;;;;5030872;28;20056;-54
2020/12/28 11:14:17;;;;;;;1.35;0.30;;;6.50;99.90;;;;;;5031644;28;20041;-54
2020/12/28 11:16:43;;;;;;;1.50;0.30;;;6.50;99.90;;;;;;5014823;28;20138;-48
2020/12/28 11:19:09;;;;;;;2.83;0.73;;;6.50;99.90;;;;;;5040683;28;21249;-52
2020/12/28 11:21:35;;;;;;;4.25;0.82;;;6.50;99.90;;;;;;5031434;28;20033;-51
2020/12/28 11:24:01;;;;;;;1.38;0.30;;;6.60;99.90;;;;;;5044543;28;20036;-48
2020/12/28 11:26:29;;;;;;;4.18;0.40;;;6.70;99.90;;;;;;5034007;28;20381;-55
2020/12/28 11:28:55;;;;;;;1.30;0.25;;;6.80;99.90;;;;;;5049919;28;20040;-54
2020/12/28 11:31:21;;;;;;;1.50;0.20;;;6.90;99.90;;;;;;5037762;28;20429;-54
2020/12/28 11:33:47;;;;;;;1.95;0.20;;;7.00;99.90;;;;;;5048719;28;20037;-52
2020/12/28 11:36:14;;;;;;;1.38;0.30;;;7.00;99.90;;;;;;5047597;28;20029;-51
2020/12/28 11:38:41;;;;;;;3.42;0.40;;;6.90;99.90;;;;;;5037650;28;20477;-53
2020/12/28 11:41:07;;;;;;;2.55;0.47;;;6.90;99.90;;;;;;5031157;28;20033;-50
2020/12/28 11:43:33;;;;;;;1.98;0.20;;;6.80;99.90;;;;;;5040671;28;20036;-57
2020/12/28 11:45:59;;;;;;;4.93;0.40;;;6.80;99.90;;;;;;5038007;28;20039;-54
2020/12/28 11:48:25;;;;;;;5.32;0.30;;;6.80;99.90;;;;;;5050915;28;20464;-50
2020/12/28 11:50:52;;;;;;;4.00;0.50;;;6.80;99.90;;;;;;5046079;28;20069;-55
2020/12/28 11:53:17;;;;;;;1.33;0.20;;;6.80;99.90;;;;;;5043519;28;20381;-56
2020/12/28 11:58:46;;;;;;;4.63;0.30;;;6.80;99.90;;;;;;5051574;28;20040;-57
2020/12/28 12:01:17;;;;;;;5.30;0.30;;;6.80;99.90;;;;;;5038099;28;20392;-53
2020/12/28 12:03:44;;;;;;;2.83;0.30;;;6.90;99.90;;;;;;5053437;28;20039;-57
2020/12/28 12:06:15;;;;;;;2.65;0.38;;;6.90;99.90;;;;;;5047634;28;20114;-55
2020/12/28 12:09:10;;;;;;;2.30;0.30;;;6.90;99.90;;;;;;5036783;28;20434;-55
2020/12/28 12:11:30;;;;;;;1.48;0.30;;;6.80;99.90;;;;;;5046663;28;20059;-57
2020/12/28 12:13:56;;;;;;;3.40;0.30;;;6.80;99.90;;;;;;5039855;28;20044;-56
2020/12/28 12:16:23;;;;;;;3.05;0.45;;;7.00;99.90;;;;;;5042945;28;20507;-55
2020/12/28 12:18:49;;;;;;;3.60;0.50;;;7.10;99.90;;;;;;5050177;28;20489;-56
2020/12/28 12:21:15;;;;;;;2.65;0.25;;;7.10;99.90;;;;;;5050311;28;20033;-55
2020/12/28 12:23:41;;;;;;;2.72;0.40;;;7.20;99.90;;;;;;5049148;28;20041;-53
2020/12/28 12:26:07;;;;;;;1.42;0.20;;;7.10;99.90;;;;;;5049869;28;20147;-60
2020/12/28 12:28:33;;;;;;;4.45;0.20;;;7.20;99.90;;;;;;5035324;28;20045;-52
2020/12/28 12:30:58;;;;;;;3.45;0.17;;;7.20;99.90;;;;;;5031369;28;20048;-52
2020/12/28 12:33:24;;;;;;;0.57;0.10;;;7.10;99.90;;;;;;5052202;28;20070;-54
2020/12/28 12:35:50;;;;;;;5.00;0.10;;;7.10;99.90;;;;;;5053489;28;20025;-54
2020/12/28 12:38:16;;;;;;;0.98;0.25;;;7.10;99.90;;;;;;5047768;28;20492;-50
2020/12/28 12:40:41;;;;;;;2.40;0.20;;;7.10;99.90;;;;;;5051292;28;20460;-56
2020/12/28 12:43:07;;;;;;;5.28;0.13;;;7.30;99.90;;;;;;5050814;28;20036;-50
2020/12/28 12:45:33;;;;;;;2.97;0.20;;;7.20;99.90;;;;;;5049779;28;20029;-54
2020/12/28 12:47:58;;;;;;;2.50;0.30;;;7.20;99.90;;;;;;5046778;28;20041;-53
2020/12/28 12:50:24;;;;;;;2.83;0.22;;;7.30;99.90;;;;;;5052699;28;20029;-56
2020/12/28 12:52:50;;;;;;;1.15;0.20;;;7.20;99.90;;;;;;5043258;28;20033;-54
2020/12/28 12:55:16;;;;;;;2.95;0.22;;;7.20;99.90;;;;;;5032739;28;20455;-53